createdAt,value
2019-01-30T00:02:08.964Z,87.88
2019-01-30T00:04:39.678Z,87.49
2019-01-30T00:07:10.289Z,87.87
2019-01-30T00:09:40.579Z,87.84
2019-01-30T00:12:11.861Z,87.22
2019-01-30T00:14:42.800Z,87.56
2019-01-30T00:17:13.319Z,87.91
2019-01-30T00:19:43.592Z,88.68
2019-01-30T00:22:13.867Z,89.05
2019-01-30T00:24:44.478Z,88.87
2019-01-30T00:27:14.958Z,89.26
2019-01-30T00:29:45.193Z,88.58
2019-01-30T00:32:15.477Z,88.13
2019-01-30T00:34:45.644Z,87.75
2019-01-30T00:37:16.524Z,87.30
2019-01-30T00:39:48.707Z,87.60
2019-01-30T00:42:19.801Z,87.53
2019-01-30T00:44:50.330Z,88.11
2019-01-30T00:47:20.526Z,87.78
2019-01-30T00:49:51.043Z,88.55
2019-01-30T00:52:21.350Z,88.54
2019-01-30T00:54:52.036Z,87.84
2019-01-30T00:57:22.611Z,87.66
2019-01-30T00:59:53.154Z,87.85
2019-01-30T01:02:23.511Z,87.60
2019-01-30T01:04:54.009Z,87.97
2019-01-30T01:07:24.320Z,88.87
2019-01-30T01:09:54.928Z,89.30
2019-01-30T01:12:25.181Z,88.83
2019-01-30T01:14:55.713Z,89.21
2019-01-30T01:17:26.358Z,88.69
2019-01-30T01:19:56.872Z,88.20
2019-01-30T01:22:27.090Z,87.66
2019-01-30T01:24:57.352Z,87.89
2019-01-30T01:27:27.573Z,87.91
2019-01-30T01:29:57.792Z,87.22
2019-01-30T01:32:28.396Z,87.08
2019-01-30T01:34:59.024Z,86.41
2019-01-30T01:37:29.273Z,86.93
2019-01-30T01:40:00.229Z,87.03
2019-01-30T01:42:30.497Z,86.65
2019-01-30T01:45:01.797Z,86.89
2019-01-30T01:47:32.380Z,86.79
2019-01-30T01:50:03.437Z,86.63
2019-01-30T01:52:33.966Z,87.07
2019-01-30T01:55:06.049Z,86.26
2019-01-30T01:57:36.969Z,86.30
2019-01-30T02:00:35.207Z,86.54
2019-01-30T02:03:00.527Z,86.75
2019-01-30T02:05:30.734Z,86.45
2019-01-30T02:08:01.617Z,86.94
2019-01-30T02:10:32.149Z,87.33
2019-01-30T02:13:02.810Z,86.73
2019-01-30T02:15:33.406Z,86.63
2019-01-30T02:18:03.938Z,85.84
2019-01-30T02:20:35.211Z,85.80
2019-01-30T02:23:05.806Z,86.15
2019-01-30T02:25:36.063Z,85.97
2019-01-30T02:28:06.340Z,86.54
2019-01-30T02:30:47.088Z,86.41
2019-01-30T02:33:09.061Z,85.46
2019-01-30T02:35:39.279Z,85.90
2019-01-30T02:38:09.813Z,85.14
2019-01-30T02:40:40.029Z,84.88
2019-01-30T02:43:10.295Z,84.41
2019-01-30T02:45:40.579Z,84.38
2019-01-30T02:48:11.219Z,84.83
2019-01-30T02:50:41.428Z,85.08
2019-01-30T02:53:12.956Z,85.23
2019-01-30T02:55:44.032Z,85.68
2019-01-30T02:58:15.794Z,85.45
2019-01-30T03:00:59.375Z,85.85
2019-01-30T03:03:26.516Z,85.96
2019-01-30T03:06:00.455Z,85.92
2019-01-30T03:08:31.241Z,85.80
2019-01-30T03:11:01.429Z,85.40
2019-01-30T03:13:31.636Z,86.39
2019-01-30T03:19:37.074Z,86.69
2019-01-30T03:22:07.603Z,87.62
2019-01-30T03:24:39.815Z,87.60
2019-01-30T03:27:18.086Z,87.77
2019-01-30T03:29:50.297Z,88.26
2019-01-30T03:32:20.604Z,88.52
2019-01-30T03:34:53.202Z,88.16
2019-01-30T03:37:25.633Z,88.45
2019-01-30T03:39:56.221Z,88.54
2019-01-30T03:42:26.549Z,87.95
2019-01-30T03:44:57.078Z,88.39
2019-01-30T03:47:28.661Z,88.67
2019-01-30T03:49:58.929Z,88.64
2019-01-30T03:52:29.103Z,88.70
2019-01-30T03:54:59.485Z,89.54
2019-01-30T03:57:29.664Z,89.91
2019-01-30T04:00:00.403Z,89.12
2019-01-30T04:02:30.742Z,87.15
2019-01-30T04:05:02.541Z,87.44
2019-01-30T04:07:33.928Z,86.76
2019-01-30T04:10:05.747Z,85.44
2019-01-30T04:12:36.002Z,85.88
2019-01-30T04:15:07.056Z,86.35
2019-01-30T04:17:37.542Z,85.72
2019-01-30T04:20:09.405Z,85.08
2019-01-30T04:22:39.884Z,85.55
2019-01-30T04:25:10.529Z,86.40
2019-01-30T04:27:40.708Z,86.76
2019-01-30T04:30:17.157Z,87.45
2019-01-30T04:32:48.191Z,87.57
2019-01-30T04:35:18.714Z,88.91
2019-01-30T04:37:49.260Z,88.59
2019-01-30T04:40:20.912Z,88.95
2019-01-30T04:42:51.853Z,88.62
2019-01-30T04:45:24.244Z,88.34
2019-01-30T04:47:54.580Z,88.33
2019-01-30T04:50:25.890Z,87.92
2019-01-30T04:52:56.890Z,86.85
2019-01-30T04:55:27.526Z,86.72
2019-01-30T04:57:58.348Z,87.20
2019-01-30T05:00:29.673Z,88.04
2019-01-30T05:02:59.851Z,87.45
2019-01-30T05:05:30.135Z,86.88
2019-01-30T05:08:00.398Z,86.63
2019-01-30T05:10:30.672Z,86.48
2019-01-30T05:13:00.948Z,87.21
2019-01-30T05:15:31.498Z,88.48
2019-01-30T05:18:02.015Z,88.69
2019-01-30T05:20:32.453Z,89.43
2019-01-30T05:23:02.671Z,89.36
2019-01-30T05:25:32.930Z,89.74
2019-01-30T05:28:03.515Z,90.07
2019-01-30T05:30:34.111Z,90.87
2019-01-30T05:33:04.702Z,90.87
2019-01-30T05:35:34.869Z,90.83
2019-01-30T05:38:05.445Z,90.66
2019-01-30T05:40:35.971Z,89.11
2019-01-30T05:43:06.190Z,88.32
2019-01-30T05:45:36.450Z,88.35
2019-01-30T05:48:06.729Z,89.17
2019-01-30T05:50:36.992Z,90.18
2019-01-30T05:53:07.415Z,90.93
2019-01-30T05:55:37.573Z,92.52
2019-01-30T05:58:08.452Z,92.05
2019-01-30T06:00:42.188Z,89.61
2019-01-30T06:03:12.975Z,89.75
2019-01-30T06:05:43.346Z,91.48
2019-01-30T06:08:13.628Z,92.78
2019-01-30T06:10:44.176Z,89.34
2019-01-30T06:13:15.011Z,91.26
2019-01-30T06:15:45.546Z,88.27
2019-01-30T06:18:16.873Z,89.08
2019-01-30T06:20:47.029Z,85.36
2019-01-30T06:23:17.539Z,85.82
2019-01-30T06:25:48.072Z,85.75
2019-01-30T06:28:18.275Z,82.75
2019-01-30T06:30:48.830Z,79.44
2019-01-30T06:33:19.029Z,77.66
2019-01-30T06:35:49.286Z,77.05
2019-01-30T06:38:20.202Z,77.97
2019-01-30T06:40:52.475Z,77.52
2019-01-30T06:43:23.709Z,77.29
2019-01-30T06:45:54.138Z,78.20
2019-01-30T06:48:24.678Z,78.36
2019-01-30T06:50:55.408Z,78.62
2019-01-30T06:53:25.998Z,79.05
2019-01-30T06:55:56.850Z,78.01
2019-01-30T06:58:27.567Z,78.42
2019-01-30T07:00:58.145Z,79.43
2019-01-30T07:03:28.550Z,79.54
2019-01-30T07:05:59.105Z,80.13
2019-01-30T07:08:29.732Z,80.56
2019-01-30T07:11:10.097Z,80.17
2019-01-30T07:13:32.219Z,81.37
2019-01-30T07:16:02.482Z,81.81
2019-01-30T07:18:33.398Z,82.59
2019-01-30T07:21:03.646Z,82.20
2019-01-30T07:23:33.942Z,82.36
2019-01-30T07:26:04.199Z,82.42
2019-01-30T07:28:35.470Z,82.81
2019-01-30T07:31:05.758Z,83.00
2019-01-30T07:33:36.770Z,83.16
2019-01-30T07:36:06.948Z,83.39
2019-01-30T07:38:37.795Z,83.62
2019-01-30T07:41:07.987Z,84.39
2019-01-30T07:43:38.589Z,84.98
2019-01-30T07:46:08.864Z,85.42
2019-01-30T07:48:39.125Z,85.33
2019-01-30T07:51:09.798Z,85.05
2019-01-30T07:53:40.417Z,85.49
2019-01-30T07:56:10.922Z,86.09
2019-01-30T07:58:41.760Z,86.57
2019-01-30T08:01:12.018Z,86.86
2019-01-30T08:03:42.920Z,86.68
2019-01-30T08:06:13.549Z,86.67
2019-01-30T08:08:43.877Z,86.20
2019-01-30T08:11:14.598Z,86.63
2019-01-30T08:13:44.858Z,86.57
2019-01-30T08:16:15.080Z,86.77
2019-01-30T08:18:45.357Z,87.19
2019-01-30T08:21:15.664Z,87.27
2019-01-30T08:23:45.845Z,87.75
2019-01-30T08:26:16.480Z,87.77
2019-01-30T08:28:46.993Z,87.99
2019-01-30T08:31:17.644Z,88.32
2019-01-30T08:33:47.867Z,88.45
2019-01-30T08:36:18.160Z,88.42
2019-01-30T08:38:49.800Z,88.56
2019-01-30T08:41:20.025Z,88.49
2019-01-30T08:43:50.777Z,88.40
2019-01-30T08:46:20.980Z,87.98
2019-01-30T08:48:51.251Z,87.40
2019-01-30T08:51:21.540Z,87.03
2019-01-30T08:53:51.793Z,86.34
2019-01-30T08:56:23.112Z,87.01
2019-01-30T08:58:53.277Z,87.49
2019-01-30T09:01:25.278Z,88.29
2019-01-30T09:03:56.588Z,88.25
2019-01-30T09:06:26.941Z,88.69
2019-01-30T09:08:57.510Z,89.82
2019-01-30T09:11:27.845Z,89.18
2019-01-30T09:13:58.079Z,89.35
2019-01-30T09:16:28.788Z,90.39
2019-01-30T09:19:00.442Z,89.64
2019-01-30T09:21:31.076Z,88.82
2019-01-30T09:24:01.612Z,89.27
2019-01-30T09:26:32.931Z,89.08
2019-01-30T09:29:03.552Z,88.93
2019-01-30T09:31:33.792Z,88.73
2019-01-30T09:34:04.474Z,87.00
2019-01-30T09:36:34.990Z,86.39
2019-01-30T09:39:09.065Z,86.48
2019-01-30T09:41:39.617Z,86.04
2019-01-30T09:44:09.886Z,86.00
2019-01-30T09:46:40.384Z,84.37
2019-01-30T09:49:11.143Z,82.67
2019-01-30T09:51:42.339Z,81.75
2019-01-30T09:54:13.086Z,81.77
2019-01-30T09:56:44.008Z,81.13
2019-01-30T09:59:14.556Z,80.74
2019-01-30T10:01:44.751Z,79.99
2019-01-30T10:04:15.405Z,79.67
2019-01-30T10:06:47.063Z,79.31
2019-01-30T10:09:17.375Z,78.70
2019-01-30T10:11:47.913Z,80.37
2019-01-30T10:14:18.186Z,84.19
2019-01-30T10:16:48.779Z,85.40
2019-01-30T10:19:19.405Z,86.55
2019-01-30T10:21:50.027Z,86.75
2019-01-30T10:24:20.970Z,86.25
2019-01-30T10:26:51.194Z,84.25
2019-01-30T10:29:21.534Z,82.48
2019-01-30T10:31:53.299Z,84.85
2019-01-30T10:34:24.642Z,88.06
2019-01-30T10:36:55.267Z,90.17
2019-01-30T10:39:25.914Z,91.77
2019-01-30T10:41:56.205Z,91.35
2019-01-30T10:44:26.498Z,90.37
2019-01-30T10:46:57.076Z,88.79
2019-01-30T10:49:27.339Z,87.88
2019-01-30T10:51:58.237Z,89.32
2019-01-30T10:54:28.861Z,89.20
2019-01-30T10:56:59.504Z,86.95
2019-01-30T10:59:29.770Z,86.61
2019-01-30T11:02:00.027Z,86.38
2019-01-30T11:04:30.325Z,85.64
2019-01-30T11:07:00.838Z,84.85
2019-01-30T11:09:31.476Z,84.22
2019-01-30T11:12:02.388Z,82.85
2019-01-30T11:14:32.636Z,82.75
2019-01-30T11:17:03.286Z,82.51
2019-01-30T11:19:33.478Z,81.67
2019-01-30T11:22:08.049Z,81.75
2019-01-30T11:24:38.329Z,79.75
2019-01-30T11:27:08.650Z,79.77
2019-01-30T11:29:38.912Z,76.90
2019-01-30T11:32:09.160Z,72.55
2019-01-30T11:34:39.417Z,71.67
2019-01-30T11:37:15.185Z,70.86
2019-01-30T11:39:48.475Z,66.87
2019-01-30T11:42:19.166Z,65.49
2019-01-30T11:44:49.453Z,63.75
2019-01-30T11:47:19.731Z,63.70
2019-01-30T11:49:50.012Z,65.89
2019-01-30T11:52:20.960Z,63.65
2019-01-30T11:54:51.740Z,66.21
2019-01-30T11:57:22.341Z,68.61
2019-01-30T11:59:52.941Z,68.41
2019-01-30T12:02:23.611Z,66.58
2019-01-30T12:04:54.151Z,69.14
2019-01-30T12:07:25.075Z,71.59
2019-01-30T12:09:55.930Z,72.57
2019-01-30T12:12:26.509Z,69.68
2019-01-30T12:14:56.705Z,65.30
2019-01-30T12:17:27.356Z,59.64
2019-01-30T12:19:58.018Z,61.59
2019-01-30T12:22:28.666Z,62.06
2019-01-30T12:24:59.525Z,62.49
2019-01-30T12:27:30.187Z,67.48
2019-01-30T12:30:01.055Z,68.97
2019-01-30T12:32:32.770Z,66.05
2019-01-30T12:35:03.021Z,58.60
2019-01-30T12:37:33.685Z,51.70
2019-01-30T12:40:05.032Z,49.82
2019-01-30T12:42:35.626Z,47.76
2019-01-30T12:45:07.814Z,51.49
2019-01-30T12:47:38.107Z,52.18
2019-01-30T12:50:08.964Z,51.09
2019-01-30T12:52:39.536Z,51.96
2019-01-30T12:55:30.478Z,51.86
2019-01-30T12:58:01.332Z,50.04
2019-01-30T13:00:53.356Z,51.91
2019-01-30T13:03:23.621Z,59.38
2019-01-30T13:05:53.814Z,60.29
2019-01-30T13:08:24.401Z,52.42
2019-01-30T13:10:55.260Z,47.86
2019-01-30T13:13:25.850Z,46.97
2019-01-30T13:15:56.188Z,50.25
2019-01-30T13:18:26.704Z,55.25
2019-01-30T13:20:57.409Z,55.72
2019-01-30T13:23:27.994Z,51.55
2019-01-30T13:25:58.694Z,48.84
2019-01-30T13:28:28.913Z,45.74
2019-01-30T13:30:59.195Z,44.58
2019-01-30T13:33:29.817Z,43.54
2019-01-30T13:36:00.058Z,45.43
2019-01-30T13:38:30.666Z,44.96
2019-01-30T13:41:01.339Z,41.47
2019-01-30T13:43:31.867Z,41.47
2019-01-30T13:46:05.393Z,41.90
2019-01-30T13:48:35.508Z,42.64
2019-01-30T13:51:05.835Z,46.71
2019-01-30T13:53:37.260Z,43.01
2019-01-30T13:56:07.737Z,39.01
2019-01-30T13:58:38.348Z,37.05
2019-01-30T14:01:17.232Z,37.05
2019-01-30T14:03:42.742Z,35.23
2019-01-30T14:06:13.405Z,34.74
2019-01-30T14:08:43.761Z,31.63
2019-01-30T14:11:14.041Z,32.32
2019-01-30T14:13:44.310Z,34.63
2019-01-30T14:16:14.692Z,42.41
2019-01-30T14:18:45.558Z,42.41
2019-01-30T14:21:16.339Z,39.44
2019-01-30T14:23:46.926Z,46.70
2019-01-30T14:26:19.114Z,46.70
2019-01-30T14:28:50.412Z,41.21
2019-01-30T14:31:20.620Z,38.04
2019-01-30T14:33:50.866Z,38.27
2019-01-30T14:36:21.171Z,35.22
2019-01-30T14:38:51.810Z,40.21
2019-01-30T14:41:39.901Z,47.17
2019-01-30T14:44:11.028Z,48.05
2019-01-30T14:46:41.573Z,48.56
2019-01-30T14:49:12.182Z,45.81
2019-01-30T14:51:42.515Z,40.62
2019-01-30T14:54:13.691Z,37.21
2019-01-30T14:56:44.242Z,33.27
2019-01-30T14:59:15.937Z,34.86
2019-01-30T15:01:47.993Z,34.30
2019-01-30T15:04:18.199Z,34.41
2019-01-30T15:06:48.585Z,34.59
2019-01-30T15:09:19.408Z,34.41
2019-01-30T15:11:50.071Z,35.30
2019-01-30T15:14:20.219Z,37.58
2019-01-30T15:16:50.751Z,38.62
2019-01-30T15:19:20.978Z,38.76
2019-01-30T15:21:51.939Z,38.34
2019-01-30T15:24:22.102Z,41.79
2019-01-30T15:26:53.930Z,48.22
2019-01-30T15:29:24.238Z,51.83
2019-01-30T15:31:54.968Z,53.56
2019-01-30T15:34:25.915Z,54.15
2019-01-30T15:36:56.509Z,54.80
2019-01-30T15:39:26.936Z,54.95
2019-01-30T15:41:57.178Z,55.33
2019-01-30T15:44:27.928Z,55.48
2019-01-30T15:46:58.461Z,56.33
2019-01-30T15:49:29.155Z,57.44
2019-01-30T15:52:00.399Z,57.38
2019-01-30T15:54:31.070Z,58.10
2019-01-30T15:57:01.746Z,58.19
2019-01-30T15:59:32.273Z,58.76
2019-01-30T16:02:02.762Z,59.47
2019-01-30T16:04:33.005Z,60.45
2019-01-30T16:07:03.990Z,60.63
2019-01-30T16:09:35.159Z,61.03
2019-01-30T16:12:05.805Z,61.84
2019-01-30T16:14:36.038Z,63.00
2019-01-30T16:17:08.221Z,62.62
2019-01-30T16:19:39.151Z,64.35
2019-01-30T16:22:12.013Z,63.92
2019-01-30T16:24:44.910Z,64.74
2019-01-30T16:27:16.423Z,64.75
2019-01-30T16:29:47.354Z,64.92
2019-01-30T16:32:19.153Z,65.58
2019-01-30T16:34:50.016Z,66.09
2019-01-30T16:37:20.366Z,65.46
2019-01-30T16:39:50.876Z,65.52
2019-01-30T16:42:21.294Z,67.36
2019-01-30T16:44:52.413Z,68.51
2019-01-30T16:47:22.928Z,69.48
2019-01-30T16:49:53.558Z,69.10
2019-01-30T16:52:24.883Z,70.25
2019-01-30T16:54:55.728Z,69.04
2019-01-30T16:57:25.943Z,69.69
2019-01-30T16:59:58.260Z,70.77
2019-01-30T17:02:29.777Z,70.60
2019-01-30T17:05:02.099Z,70.88
2019-01-30T17:07:32.620Z,71.61
2019-01-30T17:10:04.798Z,71.77
2019-01-30T17:12:37.345Z,68.73
2019-01-30T17:15:13.257Z,67.17
2019-01-30T17:17:44.037Z,65.70
2019-01-30T17:20:28.650Z,66.59
2019-01-30T17:23:00.340Z,66.02
2019-01-30T17:25:31.281Z,65.97
2019-01-30T17:28:01.935Z,66.09
2019-01-30T17:30:41.362Z,65.63
2019-01-30T17:33:12.018Z,64.43
2019-01-30T17:35:43.338Z,65.21
2019-01-30T17:38:14.005Z,65.21
2019-01-30T17:41:06.590Z,65.29
2019-01-30T17:43:38.058Z,65.62
2019-01-30T17:46:08.879Z,66.60
2019-01-30T17:48:39.968Z,67.03
2019-01-30T17:51:31.689Z,67.99
2019-01-30T17:54:02.884Z,68.10
2019-01-30T17:56:35.569Z,67.05
2019-01-30T17:59:06.168Z,67.85
2019-01-30T18:01:38.195Z,67.91
2019-01-30T18:04:09.444Z,67.22
2019-01-30T18:06:40.906Z,68.34
2019-01-30T18:09:12.368Z,67.99
2019-01-30T18:11:43.319Z,68.92
2019-01-30T18:14:15.176Z,68.77
2019-01-30T18:16:47.107Z,68.82
2019-01-30T18:19:20.838Z,69.13
2019-01-30T18:21:53.234Z,69.30
2019-01-30T18:24:26.388Z,69.65
2019-01-30T18:27:00.085Z,70.03
2019-01-30T18:29:33.119Z,69.82
2019-01-30T18:32:09.099Z,70.35
2019-01-30T18:34:43.158Z,69.46
2019-01-30T18:37:16.740Z,70.32
2019-01-30T18:39:49.818Z,69.76
2019-01-30T18:42:22.846Z,69.33
2019-01-30T18:44:56.261Z,68.86
2019-01-30T18:47:28.798Z,69.00
2019-01-30T18:50:01.647Z,66.19
2019-01-30T18:52:34.066Z,66.83
2019-01-30T18:55:08.487Z,68.02
2019-01-30T18:58:01.763Z,69.49
2019-01-30T19:00:39.314Z,70.95
2019-01-30T19:03:13.503Z,71.20
2019-01-30T19:05:44.879Z,73.13
2019-01-30T19:08:18.643Z,73.17
2019-01-30T19:10:52.588Z,72.72
2019-01-30T19:13:25.794Z,73.71
2019-01-30T19:16:18.146Z,74.24
2019-01-30T19:18:52.027Z,74.83
2019-01-30T19:21:25.235Z,75.62
2019-01-30T19:23:59.093Z,76.30
2019-01-30T19:26:32.614Z,76.91
2019-01-30T19:29:06.340Z,77.45
2019-01-30T19:31:39.489Z,76.94
2019-01-30T19:34:14.406Z,76.19
2019-01-30T19:36:48.217Z,76.44
2019-01-30T19:39:22.945Z,75.84
2019-01-30T19:41:57.821Z,76.14
2019-01-30T19:44:50.850Z,76.83
2019-01-30T19:47:26.223Z,75.76
2019-01-30T19:50:00.542Z,76.12
2019-01-30T19:52:35.552Z,77.26
2019-01-30T19:55:11.490Z,78.21
2019-01-30T19:57:46.903Z,79.06
2019-01-30T20:00:32.186Z,79.35
2019-01-30T20:03:07.522Z,79.96
2019-01-30T20:05:41.664Z,81.96
2019-01-30T20:08:15.946Z,82.42
2019-01-30T20:10:50.741Z,82.79
2019-01-30T20:13:24.400Z,83.09
2019-01-30T20:15:58.319Z,83.10
2019-01-30T20:18:34.591Z,83.79
2019-01-30T20:21:08.836Z,84.10
2019-01-30T20:24:01.754Z,84.74
2019-01-30T20:26:35.486Z,85.48
2019-01-30T20:29:08.608Z,85.74
2019-01-30T20:32:01.034Z,86.76
2019-01-30T20:34:35.264Z,87.33
2019-01-30T20:37:28.298Z,88.26
2019-01-30T20:40:03.243Z,89.06
2019-01-30T20:42:37.745Z,88.70
2019-01-30T20:45:16.321Z,88.33
2019-01-30T20:47:50.028Z,88.11
2019-01-30T20:50:26.010Z,88.15
2019-01-30T20:52:59.841Z,87.32
2019-01-30T20:55:33.132Z,86.73
2019-01-30T20:58:07.381Z,86.53
2019-01-30T21:00:46.398Z,85.50
2019-01-30T21:03:20.668Z,85.48
2019-01-30T21:05:55.099Z,85.59
2019-01-30T21:08:28.406Z,84.37
2019-01-30T21:11:02.087Z,83.13
2019-01-30T21:13:35.381Z,82.09
2019-01-30T21:16:08.834Z,81.48
2019-01-30T21:18:41.343Z,80.88
2019-01-30T21:21:14.694Z,80.12
2019-01-30T21:23:47.715Z,79.10
2019-01-30T21:26:20.668Z,78.89
2019-01-30T21:28:53.127Z,77.33
2019-01-30T21:31:44.819Z,75.07
2019-01-30T21:34:17.289Z,73.46
2019-01-30T21:36:50.183Z,73.11
2019-01-30T21:39:24.073Z,71.97
2019-01-30T21:41:57.589Z,72.96
2019-01-30T21:44:30.770Z,73.97
2019-01-30T21:47:03.453Z,73.40
2019-01-30T21:49:35.350Z,73.68
2019-01-30T21:52:26.769Z,74.71
2019-01-30T21:54:58.301Z,75.68
2019-01-30T21:57:30.815Z,76.62
2019-01-30T22:00:02.317Z,77.59
2019-01-30T22:02:34.689Z,77.30
2019-01-30T22:05:07.372Z,77.90
2019-01-30T22:07:37.995Z,79.08
2019-01-30T22:10:11.097Z,80.29
2019-01-30T22:12:41.718Z,81.16
2019-01-30T22:15:13.147Z,81.11
2019-01-30T22:17:43.428Z,82.34
2019-01-30T22:20:16.026Z,83.06
2019-01-30T22:22:47.575Z,83.56
2019-01-30T22:25:20.664Z,84.21
2019-01-30T22:27:51.419Z,85.12
2019-01-30T22:30:23.660Z,85.09
2019-01-30T22:32:54.182Z,84.88
2019-01-30T22:35:24.814Z,85.17
2019-01-30T22:37:55.336Z,85.11
2019-01-30T22:40:26.101Z,85.25
2019-01-30T22:42:56.295Z,85.84
2019-01-30T22:45:28.022Z,86.61
2019-01-30T22:47:58.195Z,87.72
2019-01-30T22:50:28.881Z,88.75
2019-01-30T22:52:59.132Z,88.76
2019-01-30T22:55:30.663Z,89.37
2019-01-30T22:58:01.253Z,90.45
2019-01-30T23:01:31.359Z,91.75
2019-01-30T23:04:22.837Z,92.08
2019-01-30T23:07:37.707Z,92.39
2019-01-30T23:10:54.008Z,92.53
2019-01-30T23:14:08.084Z,92.54
2019-01-30T23:17:22.138Z,92.01
2019-01-30T23:20:22.770Z,92.12
2019-01-30T23:23:37.200Z,92.79
2019-01-30T23:26:23.973Z,91.92
2019-01-30T23:29:35.496Z,90.99
2019-01-30T23:32:31.777Z,90.85
2019-01-30T23:35:31.879Z,90.01
2019-01-30T23:38:45.334Z,89.13
2019-01-30T23:41:41.527Z,88.71
2019-01-30T23:44:32.763Z,88.36
2019-01-30T23:47:51.753Z,87.78
2019-01-30T23:50:51.641Z,87.40
2019-01-30T23:54:03.454Z,86.37
2019-01-30T23:56:50.994Z,86.06
